Time;durP1;ratioP1;P1;durP2;ratioP2;P2;SDS_P1;SDS_P2;PMS_P1;PMS_P2;Temp;Humidity;BMP_temperature;BMP_pressure;BME280_temperature;BME280_humidity;BME280_pressure;Samples;Min_cycle;Max_cycle;Signal;HPM_P1;HPM_P2
2022/03/09 00:02:18;;;;;;;4.68;2.80;;;;;;;;;;5093822;28;20028;-45
2022/03/09 00:04:44;;;;;;;4.20;2.55;;;;;;;;;;5093868;28;20028;-45
2022/03/09 00:07:10;;;;;;;3.97;2.88;;;;;;;;;;5093796;28;20028;-45
2022/03/09 00:09:36;;;;;;;3.58;2.70;;;;;;;;;;5093690;28;20059;-46
2022/03/09 00:12:02;;;;;;;3.90;2.83;;;;;;;;;;5093742;28;20028;-48
2022/03/09 00:14:28;;;;;;;3.13;2.60;;;;;;;;;;5093609;28;20053;-48
2022/03/09 00:16:54;;;;;;;4.63;2.88;;;;;;;;;;5093635;28;20149;-46
2022/03/09 00:19:20;;;;;;;3.63;2.55;;;;;;;;;;5093577;28;20035;-46
2022/03/09 00:21:46;;;;;;;3.40;2.53;;;;;;;;;;5092756;28;20028;-45
2022/03/09 00:24:14;;;;;;;3.40;2.92;;;;;;;;;;5093531;28;20517;-45
2022/03/09 00:26:40;;;;;;;3.80;2.72;;;;;;;;;;5093694;28;20024;-47
2022/03/09 00:29:06;;;;;;;5.05;3.35;;;;;;;;;;5093423;28;20105;-45
2022/03/09 00:31:32;;;;;;;4.97;2.45;;;;;;;;;;5093316;28;20028;-47
2022/03/09 00:33:58;;;;;;;4.00;2.35;;;;;;;;;;5093396;28;20381;-51
2022/03/09 00:36:24;;;;;;;5.43;2.60;;;;;;;;;;5093085;28;20044;-49
2022/03/09 00:38:50;;;;;;;2.85;2.55;;;;;;;;;;5093148;28;20032;-48
2022/03/09 00:41:16;;;;;;;2.97;2.10;;;;;;;;;;5093206;28;20020;-49
2022/03/09 00:43:42;;;;;;;3.95;2.33;;;;;;;;;;5093080;28;20031;-49
2022/03/09 00:46:08;;;;;;;3.38;2.65;;;;;;;;;;5093326;28;20028;-50
2022/03/09 00:48:34;;;;;;;3.35;3.00;;;;;;;;;;5092996;28;20462;-49
2022/03/09 00:51:00;;;;;;;3.92;2.75;;;;;;;;;;5093029;28;20062;-48
2022/03/09 00:53:26;;;;;;;4.05;2.67;;;;;;;;;;5093043;28;20484;-46
2022/03/09 00:55:52;;;;;;;3.83;2.35;;;;;;;;;;5092877;28;20098;-46
2022/03/09 00:58:18;;;;;;;3.38;2.63;;;;;;;;;;5092793;28;20035;-47
2022/03/09 01:00:44;;;;;;;3.58;2.65;;;;;;;;;;5092889;28;20016;-47
2022/03/09 01:03:10;;;;;;;4.15;2.60;;;;;;;;;;5092693;28;20505;-46
2022/03/09 01:05:36;;;;;;;3.45;2.40;;;;;;;;;;5092740;28;20462;-47
2022/03/09 01:08:02;;;;;;;2.92;2.63;;;;;;;;;;5092782;28;20021;-47
2022/03/09 01:10:28;;;;;;;3.88;2.70;;;;;;;;;;5092949;28;20020;-47
2022/03/09 01:12:54;;;;;;;4.75;3.33;;;;;;;;;;5092878;28;20411;-46
2022/03/09 01:15:20;;;;;;;3.30;3.00;;;;;;;;;;5092597;28;20116;-46
2022/03/09 01:17:46;;;;;;;5.15;3.53;;;;;;;;;;5092474;28;20618;-46
2022/03/09 01:20:13;;;;;;;3.78;3.03;;;;;;;;;;5092462;28;20024;-46
2022/03/09 01:22:39;;;;;;;2.65;2.30;;;;;;;;;;5092448;28;20561;-46
2022/03/09 01:25:05;;;;;;;3.92;2.85;;;;;;;;;;5092511;28;20052;-45
2022/03/09 01:27:31;;;;;;;4.85;2.78;;;;;;;;;;5092424;28;20032;-47
2022/03/09 01:29:57;;;;;;;3.60;2.85;;;;;;;;;;5092425;28;20024;-48
2022/03/09 01:32:23;;;;;;;3.80;3.08;;;;;;;;;;5092156;28;20032;-48
2022/03/09 01:34:49;;;;;;;3.50;2.90;;;;;;;;;;5092302;28;20116;-49
2022/03/09 01:37:15;;;;;;;3.80;2.97;;;;;;;;;;5092058;28;20059;-50
2022/03/09 01:39:41;;;;;;;4.95;2.58;;;;;;;;;;5092248;28;20028;-49
2022/03/09 01:42:08;;;;;;;3.38;2.72;;;;;;;;;;5092319;28;20103;-49
2022/03/09 01:44:34;;;;;;;3.85;3.05;;;;;;;;;;5092259;28;20031;-48
2022/03/09 01:47:00;;;;;;;2.72;2.33;;;;;;;;;;5092325;28;20028;-49
2022/03/09 01:49:26;;;;;;;5.13;2.90;;;;;;;;;;5092272;28;20029;-51
2022/03/09 01:51:54;;;;;;;4.35;2.97;;;;;;;;;;5092216;28;20118;-50
2022/03/09 01:54:20;;;;;;;2.78;2.53;;;;;;;;;;5092249;28;20036;-49
2022/03/09 01:56:46;;;;;;;4.63;3.42;;;;;;;;;;5092065;28;20143;-48
2022/03/09 01:59:17;;;;;;;4.05;2.60;;;;;;;;;;5092144;28;20039;-47
2022/03/09 02:01:43;;;;;;;2.83;2.58;;;;;;;;;;5092080;28;20394;-49
2022/03/09 02:04:10;;;;;;;2.70;2.38;;;;;;;;;;5092100;28;20150;-49
2022/03/09 02:06:36;;;;;;;3.00;2.55;;;;;;;;;;5092197;28;20020;-48
2022/03/09 02:11:48;;;;;;;3.15;2.88;;;;;;;;;;5092243;28;20035;-50
2022/03/09 02:14:36;;;;;;;4.60;2.97;;;;;;;;;;5092052;28;20040;-48
2022/03/09 02:17:12;;;;;;;3.55;2.70;;;;;;;;;;5091801;28;20031;-47
2022/03/09 02:19:39;;;;;;;3.40;2.90;;;;;;;;;;5091972;28;20036;-48
2022/03/09 02:22:11;;;;;;;3.83;3.17;;;;;;;;;;5092149;28;20103;-48
2022/03/09 02:24:37;;;;;;;3.28;2.50;;;;;;;;;;5092053;28;20031;-45
2022/03/09 02:27:03;;;;;;;3.75;2.90;;;;;;;;;;5092176;28;20115;-45
2022/03/09 02:29:29;;;;;;;3.42;2.78;;;;;;;;;;5091841;28;20036;-46
2022/03/09 02:31:55;;;;;;;3.90;2.90;;;;;;;;;;5091799;28;20388;-47
2022/03/09 02:34:21;;;;;;;3.55;2.83;;;;;;;;;;5091838;28;20024;-48
2022/03/09 02:36:48;;;;;;;2.83;2.63;;;;;;;;;;5091522;28;20077;-47
2022/03/09 02:39:13;;;;;;;3.38;2.75;;;;;;;;;;5091710;28;20024;-48
2022/03/09 02:41:39;;;;;;;3.42;2.70;;;;;;;;;;5092054;28;20031;-48
2022/03/09 02:44:05;;;;;;;4.07;3.33;;;;;;;;;;5092281;28;20064;-47
2022/03/09 02:46:31;;;;;;;3.08;2.80;;;;;;;;;;5095412;28;20032;-47
2022/03/09 02:48:57;;;;;;;3.83;2.88;;;;;;;;;;5095313;28;20032;-47
2022/03/09 02:51:23;;;;;;;3.20;2.70;;;;;;;;;;5095589;28;20028;-47
2022/03/09 02:53:49;;;;;;;2.90;2.60;;;;;;;;;;5095219;28;20024;-49
2022/03/09 02:56:16;;;;;;;4.15;2.88;;;;;;;;;;5095193;28;20063;-47
2022/03/09 02:58:43;;;;;;;3.60;2.53;;;;;;;;;;5095067;28;20036;-47
2022/03/09 03:01:10;;;;;;;3.70;2.88;;;;;;;;;;5095073;28;20035;-47
2022/03/09 03:03:36;;;;;;;2.67;2.42;;;;;;;;;;5095380;28;20032;-47
2022/03/09 03:06:02;;;;;;;5.20;2.60;;;;;;;;;;5094978;28;20081;-47
2022/03/09 03:08:28;;;;;;;3.15;2.70;;;;;;;;;;5094993;28;20059;-47
2022/03/09 03:10:54;;;;;;;3.53;2.60;;;;;;;;;;5095208;28;20144;-47
2022/03/09 03:13:19;;;;;;;3.80;3.00;;;;;;;;;;5094863;28;20030;-48
2022/03/09 03:15:45;;;;;;;3.75;2.72;;;;;;;;;;5094849;28;20060;-48
2022/03/09 03:18:11;;;;;;;3.13;2.63;;;;;;;;;;5094698;28;20072;-48
2022/03/09 03:20:37;;;;;;;4.20;3.22;;;;;;;;;;5094838;28;20036;-49
2022/03/09 03:23:03;;;;;;;3.17;2.75;;;;;;;;;;5095010;28;20032;-48
2022/03/09 03:25:29;;;;;;;3.13;2.50;;;;;;;;;;5094604;28;20032;-50
2022/03/09 03:27:55;;;;;;;4.32;2.70;;;;;;;;;;5094907;28;20024;-50
2022/03/09 03:30:21;;;;;;;4.45;2.80;;;;;;;;;;5094819;28;20435;-49
2022/03/09 03:32:47;;;;;;;3.83;2.83;;;;;;;;;;5094450;28;20036;-50
2022/03/09 03:35:13;;;;;;;3.22;2.90;;;;;;;;;;5094422;28;20024;-49
2022/03/09 03:37:40;;;;;;;3.90;3.20;;;;;;;;;;5094182;28;20055;-49
2022/03/09 03:40:06;;;;;;;3.80;2.88;;;;;;;;;;5094398;28;20390;-50
2022/03/09 03:42:32;;;;;;;3.25;2.42;;;;;;;;;;5094324;28;20028;-48
2022/03/09 03:44:58;;;;;;;5.05;2.80;;;;;;;;;;5094278;28;20032;-49
2022/03/09 03:47:24;;;;;;;3.83;2.80;;;;;;;;;;5094221;28;20024;-49
2022/03/09 03:49:50;;;;;;;3.70;2.53;;;;;;;;;;5094514;28;20067;-49
2022/03/09 03:52:16;;;;;;;3.08;2.17;;;;;;;;;;5094402;28;20055;-50
2022/03/09 03:54:42;;;;;;;5.03;2.83;;;;;;;;;;5094080;28;20042;-50
2022/03/09 03:57:08;;;;;;;3.35;2.65;;;;;;;;;;5094018;28;20039;-46
2022/03/09 03:59:34;;;;;;;2.55;2.35;;;;;;;;;;5094271;28;20039;-47
2022/03/09 04:02:00;;;;;;;4.35;2.47;;;;;;;;;;5093819;28;20024;-47
2022/03/09 04:04:26;;;;;;;4.07;2.97;;;;;;;;;;5093811;28;20032;-47
2022/03/09 04:06:52;;;;;;;2.22;2.03;;;;;;;;;;5093806;28;20031;-48
2022/03/09 04:09:18;;;;;;;4.15;2.78;;;;;;;;;;5093734;28;20524;-46
2022/03/09 04:11:44;;;;;;;2.63;2.42;;;;;;;;;;5093711;28;20386;-48
2022/03/09 04:14:10;;;;;;;4.00;2.88;;;;;;;;;;5093982;28;20035;-49
2022/03/09 04:16:36;;;;;;;3.08;2.60;;;;;;;;;;5093732;28;20466;-49
2022/03/09 04:19:02;;;;;;;3.53;2.67;;;;;;;;;;5093511;28;20538;-48
2022/03/09 04:21:28;;;;;;;4.20;2.58;;;;;;;;;;5093508;28;20402;-49
2022/03/09 04:23:54;;;;;;;3.10;2.80;;;;;;;;;;5093533;28;20505;-49
2022/03/09 04:26:20;;;;;;;2.78;2.50;;;;;;;;;;5093401;28;20027;-49
2022/03/09 04:28:46;;;;;;;3.08;2.78;;;;;;;;;;5093459;28;20032;-49
2022/03/09 04:31:12;;;;;;;5.57;3.10;;;;;;;;;;5093447;28;20055;-49
2022/03/09 04:33:38;;;;;;;3.08;2.75;;;;;;;;;;5093459;28;20056;-48
2022/03/09 04:36:05;;;;;;;3.08;2.78;;;;;;;;;;5093150;28;20024;-46
2022/03/09 04:38:31;;;;;;;2.50;2.30;;;;;;;;;;5093091;28;20027;-46
2022/03/09 04:40:56;;;;;;;2.63;2.30;;;;;;;;;;5093175;28;20032;-46
2022/03/09 04:43:22;;;;;;;3.20;2.50;;;;;;;;;;5093215;28;20035;-47
2022/03/09 04:45:48;;;;;;;4.32;2.33;;;;;;;;;;5093036;28;20071;-47
2022/03/09 04:48:14;;;;;;;3.47;2.70;;;;;;;;;;5093134;28;20307;-47
2022/03/09 04:50:41;;;;;;;4.00;2.40;;;;;;;;;;5092990;28;20024;-50
2022/03/09 04:53:06;;;;;;;3.08;2.58;;;;;;;;;;5093285;28;20031;-47
2022/03/09 04:55:32;;;;;;;4.07;2.80;;;;;;;;;;5092897;28;20486;-46
2022/03/09 04:57:58;;;;;;;3.70;2.60;;;;;;;;;;5092823;28;20483;-48
2022/03/09 05:00:25;;;;;;;3.28;2.40;;;;;;;;;;5092787;28;20518;-47
2022/03/09 05:02:51;;;;;;;4.20;2.60;;;;;;;;;;5092723;28;20071;-48
2022/03/09 05:05:17;;;;;;;3.70;2.72;;;;;;;;;;5093032;28;20063;-47
2022/03/09 05:07:43;;;;;;;3.50;2.50;;;;;;;;;;5092263;28;20031;-47
2022/03/09 05:10:10;;;;;;;3.85;2.83;;;;;;;;;;5092794;28;20032;-46
2022/03/09 05:12:36;;;;;;;4.10;2.42;;;;;;;;;;5091445;28;20047;-47
2022/03/09 05:15:02;;;;;;;4.57;2.70;;;;;;;;;;5092918;28;20028;-46
2022/03/09 05:17:28;;;;;;;3.05;2.53;;;;;;;;;;5092531;28;20060;-47
2022/03/09 05:19:54;;;;;;;3.50;3.03;;;;;;;;;;5092568;28;20112;-48
2022/03/09 05:22:20;;;;;;;3.30;2.65;;;;;;;;;;5092767;28;20016;-47
2022/03/09 05:24:46;;;;;;;4.93;3.10;;;;;;;;;;5092486;28;20063;-47
2022/03/09 05:27:12;;;;;;;3.10;2.47;;;;;;;;;;5092455;28;20482;-48
2022/03/09 05:29:38;;;;;;;3.25;2.45;;;;;;;;;;5092489;28;20389;-50
2022/03/09 05:32:05;;;;;;;3.97;2.67;;;;;;;;;;5092410;28;20032;-51
2022/03/09 05:34:31;;;;;;;3.20;2.78;;;;;;;;;;5092351;28;20063;-50
2022/03/09 05:36:57;;;;;;;4.10;2.35;;;;;;;;;;5092064;28;20052;-49
2022/03/09 05:39:23;;;;;;;3.75;2.90;;;;;;;;;;5092303;28;20036;-50
2022/03/09 05:41:49;;;;;;;3.10;2.72;;;;;;;;;;5092288;28;20028;-51
2022/03/09 05:44:15;;;;;;;4.05;2.90;;;;;;;;;;5092290;28;20474;-50
2022/03/09 05:46:41;;;;;;;4.90;3.03;;;;;;;;;;5092237;28;20078;-50
2022/03/09 05:49:07;;;;;;;2.78;2.28;;;;;;;;;;5092188;28;20031;-49
2022/03/09 05:51:33;;;;;;;2.95;2.33;;;;;;;;;;5092219;28;20032;-52
2022/03/09 05:53:59;;;;;;;2.72;2.53;;;;;;;;;;5092167;28;20024;-51
2022/03/09 05:56:25;;;;;;;2.85;2.47;;;;;;;;;;5092100;28;20394;-50
2022/03/09 05:58:51;;;;;;;3.67;2.80;;;;;;;;;;5092033;28;20173;-50
2022/03/09 06:01:17;;;;;;;2.78;2.40;;;;;;;;;;5092074;28;20099;-50
2022/03/09 06:03:43;;;;;;;2.88;2.65;;;;;;;;;;5092121;28;20089;-50
2022/03/09 06:06:09;;;;;;;3.30;3.00;;;;;;;;;;5092492;28;20028;-49
2022/03/09 06:08:35;;;;;;;3.55;2.60;;;;;;;;;;5092091;28;20027;-52
2022/03/09 06:11:01;;;;;;;2.60;2.38;;;;;;;;;;5092053;28;20027;-50
2022/03/09 06:13:27;;;;;;;3.83;2.58;;;;;;;;;;5091565;28;20099;-48
2022/03/09 06:15:53;;;;;;;3.78;2.30;;;;;;;;;;5091938;28;20470;-50
2022/03/09 06:18:19;;;;;;;2.28;2.00;;;;;;;;;;5091860;28;20115;-47
2022/03/09 06:20:45;;;;;;;3.83;2.78;;;;;;;;;;5095200;28;20028;-50
2022/03/09 06:23:11;;;;;;;3.45;2.45;;;;;;;;;;5095909;28;20038;-50
2022/03/09 06:25:37;;;;;;;2.92;2.50;;;;;;;;;;5095827;28;20108;-50
2022/03/09 06:28:03;;;;;;;2.80;2.35;;;;;;;;;;5095733;28;20028;-49
2022/03/09 06:30:29;;;;;;;4.03;2.42;;;;;;;;;;5095736;28;20107;-48
2022/03/09 06:32:55;;;;;;;2.92;2.30;;;;;;;;;;5095672;28;20493;-50
2022/03/09 06:35:21;;;;;;;3.10;2.38;;;;;;;;;;5096068;28;20020;-51
2022/03/09 06:37:47;;;;;;;2.55;1.75;;;;;;;;;;5095516;28;20055;-49
2022/03/09 06:40:13;;;;;;;4.38;2.38;;;;;;;;;;5095723;28;20074;-53
2022/03/09 06:42:39;;;;;;;3.85;2.35;;;;;;;;;;5095564;28;20031;-55
2022/03/09 06:45:06;;;;;;;3.13;2.35;;;;;;;;;;5095415;28;20028;-51
2022/03/09 06:47:35;;;;;;;4.78;2.70;;;;;;;;;;5095429;28;20028;-50
2022/03/09 06:50:01;;;;;;;2.80;2.40;;;;;;;;;;5095412;28;20103;-50
2022/03/09 06:52:27;;;;;;;3.72;2.60;;;;;;;;;;5095452;28;20162;-52
2022/03/09 06:54:53;;;;;;;3.38;2.17;;;;;;;;;;5095390;28;20024;-50
2022/03/09 06:57:19;;;;;;;2.35;2.10;;;;;;;;;;5095254;28;20036;-50
2022/03/09 06:59:46;;;;;;;3.50;2.85;;;;;;;;;;5095331;28;20099;-52
2022/03/09 07:02:12;;;;;;;3.40;2.60;;;;;;;;;;5095225;28;20028;-51
2022/03/09 07:04:38;;;;;;;2.90;2.55;;;;;;;;;;5095240;28;20031;-54
2022/03/09 07:07:04;;;;;;;2.97;2.10;;;;;;;;;;5095422;28;20063;-50
2022/03/09 07:09:30;;;;;;;3.85;2.10;;;;;;;;;;5095090;28;20107;-51
2022/03/09 07:11:57;;;;;;;3.35;2.42;;;;;;;;;;5095065;28;20513;-51
2022/03/09 07:14:23;;;;;;;3.08;2.50;;;;;;;;;;5095196;28;20031;-48
2022/03/09 07:16:49;;;;;;;3.47;2.47;;;;;;;;;;5094918;28;20032;-49
2022/03/09 07:19:15;;;;;;;5.38;2.42;;;;;;;;;;5094956;28;20105;-49
2022/03/09 07:21:41;;;;;;;2.25;2.05;;;;;;;;;;5094971;28;20466;-48
2022/03/09 07:24:07;;;;;;;3.35;2.53;;;;;;;;;;5094855;28;20039;-47
2022/03/09 07:26:33;;;;;;;4.50;2.75;;;;;;;;;;5094810;28;20024;-48
2022/03/09 07:28:59;;;;;;;3.50;2.20;;;;;;;;;;5094754;28;20474;-49
2022/03/09 07:31:25;;;;;;;10.57;2.63;;;;;;;;;;5094332;28;20032;-48
2022/03/09 07:33:51;;;;;;;2.75;2.38;;;;;;;;;;5094609;28;20032;-47
2022/03/09 07:36:17;;;;;;;4.63;2.58;;;;;;;;;;5094354;28;20390;-48
2022/03/09 07:38:43;;;;;;;3.97;2.45;;;;;;;;;;5094822;28;20121;-48
2022/03/09 07:41:09;;;;;;;3.85;2.88;;;;;;;;;;5094461;28;20496;-45
2022/03/09 07:43:35;;;;;;;4.80;2.83;;;;;;;;;;5094379;28;20431;-46
2022/03/09 07:46:01;;;;;;;3.22;2.85;;;;;;;;;;5094470;28;20101;-45
2022/03/09 07:48:28;;;;;;;3.83;3.10;;;;;;;;;;5094347;28;20516;-45
2022/03/09 07:50:54;;;;;;;4.15;2.78;;;;;;;;;;5094316;28;20028;-47
2022/03/09 07:53:20;;;;;;;3.70;2.53;;;;;;;;;;5094604;28;20055;-45
2022/03/09 07:55:46;;;;;;;5.47;2.63;;;;;;;;;;5094568;28;20107;-46
2022/03/09 07:58:12;;;;;;;5.72;3.03;;;;;;;;;;5094124;28;20123;-46
2022/03/09 08:00:38;;;;;;;5.50;3.08;;;;;;;;;;5094096;28;20027;-46
2022/03/09 08:03:04;;;;;;;11.65;3.22;;;;;;;;;;5094313;28;20035;-45
2022/03/09 08:05:29;;;;;;;7.93;3.20;;;;;;;;;;5094066;28;20056;-44
2022/03/09 08:07:55;;;;;;;7.07;2.92;;;;;;;;;;5094053;28;20049;-45
2022/03/09 08:10:21;;;;;;;3.55;2.75;;;;;;;;;;5093845;28;20059;-44
2022/03/09 08:12:47;;;;;;;6.68;2.65;;;;;;;;;;5093894;28;20449;-44
2022/03/09 08:15:13;;;;;;;4.13;2.80;;;;;;;;;;5093907;28;20056;-49
2022/03/09 08:17:39;;;;;;;3.30;2.20;;;;;;;;;;5093653;28;20078;-50
2022/03/09 08:20:06;;;;;;;4.10;2.60;;;;;;;;;;5093804;28;20382;-50
2022/03/09 08:22:32;;;;;;;4.53;2.97;;;;;;;;;;5093892;28;20111;-49
2022/03/09 08:24:58;;;;;;;5.55;2.65;;;;;;;;;;5093577;28;20070;-50
2022/03/09 08:27:24;;;;;;;3.45;2.35;;;;;;;;;;5093807;28;20066;-50
2022/03/09 08:29:51;;;;;;;4.28;2.38;;;;;;;;;;5093638;28;20482;-49
2022/03/09 08:32:23;;;;;;;5.32;2.08;;;;;;;;;;5093837;28;20028;-49
2022/03/09 08:34:49;;;;;;;4.63;2.28;;;;;;;;;;5093754;28;20254;-50
2022/03/09 08:37:15;;;;;;;3.75;2.10;;;;;;;;;;5093261;28;20047;-49
2022/03/09 08:39:48;;;;;;;4.38;2.17;;;;;;;;;;5093412;28;20028;-49
2022/03/09 08:42:14;;;;;;;3.53;2.13;;;;;;;;;;5092719;28;20020;-49
2022/03/09 08:44:40;;;;;;;3.38;2.15;;;;;;;;;;5093529;28;20023;-50
2022/03/09 08:47:06;;;;;;;2.67;2.05;;;;;;;;;;5093172;28;20395;-53
2022/03/09 08:49:33;;;;;;;2.70;1.90;;;;;;;;;;5093422;28;20028;-51
2022/03/09 08:51:59;;;;;;;3.00;2.10;;;;;;;;;;5093059;28;20372;-48
2022/03/09 08:54:25;;;;;;;3.63;2.05;;;;;;;;;;5092895;28;20031;-50
2022/03/09 08:56:51;;;;;;;2.20;1.75;;;;;;;;;;5092892;28;20024;-49
2022/03/09 08:59:17;;;;;;;4.72;1.98;;;;;;;;;;5092820;28;20170;-49
2022/03/09 09:01:43;;;;;;;5.65;2.30;;;;;;;;;;5092690;28;20383;-48
2022/03/09 09:04:09;;;;;;;4.50;2.20;;;;;;;;;;5092955;28;20105;-49
2022/03/09 09:06:35;;;;;;;3.38;2.00;;;;;;;;;;5092922;28;20082;-50
2022/03/09 09:09:01;;;;;;;3.03;1.88;;;;;;;;;;5092941;28;20039;-45
2022/03/09 09:11:27;;;;;;;2.47;1.70;;;;;;;;;;5092845;28;20081;-45
2022/03/09 09:13:53;;;;;;;3.40;1.67;;;;;;;;;;5092820;28;20382;-45
2022/03/09 09:16:19;;;;;;;3.40;1.90;;;;;;;;;;5092716;28;20103;-45
2022/03/09 09:18:45;;;;;;;2.15;1.60;;;;;;;;;;5092573;28;20044;-45
2022/03/09 09:21:11;;;;;;;3.05;1.73;;;;;;;;;;5092934;28;20046;-45
2022/03/09 09:23:39;;;;;;;2.00;1.58;;;;;;;;;;5092648;28;20115;-44
2022/03/09 09:26:05;;;;;;;4.03;2.10;;;;;;;;;;5092657;28;20055;-44
2022/03/09 09:28:31;;;;;;;2.70;1.67;;;;;;;;;;5092673;28;20028;-44
2022/03/09 09:30:57;;;;;;;1.77;1.65;;;;;;;;;;5092830;28;20394;-45
2022/03/09 09:33:23;;;;;;;2.22;1.55;;;;;;;;;;5092591;28;20028;-45
2022/03/09 09:35:49;;;;;;;2.90;1.80;;;;;;;;;;5092526;28;20028;-44
2022/03/09 09:38:15;;;;;;;2.22;1.63;;;;;;;;;;5092263;28;20076;-45
2022/03/09 09:40:44;;;;;;;2.80;1.98;;;;;;;;;;5092369;28;20489;-45
2022/03/09 09:43:11;;;;;;;1.92;1.70;;;;;;;;;;5092342;28;20039;-45
2022/03/09 09:45:37;;;;;;;1.95;1.65;;;;;;;;;;5092411;28;20035;-44
2022/03/09 09:48:04;;;;;;;2.60;1.80;;;;;;;;;;5092347;28;20082;-44
2022/03/09 09:50:31;;;;;;;2.55;1.90;;;;;;;;;;5092376;28;20070;-46
2022/03/09 09:52:57;;;;;;;2.75;2.15;;;;;;;;;;5092736;28;20040;-45
2022/03/09 09:55:29;;;;;;;2.28;1.58;;;;;;;;;;5096500;28;20024;-44
2022/03/09 09:57:56;;;;;;;1.88;1.60;;;;;;;;;;5096397;28;20070;-45
2022/03/09 10:00:22;;;;;;;2.60;1.60;;;;;;;;;;5096304;28;20028;-45
2022/03/09 10:02:48;;;;;;;2.78;1.58;;;;;;;;;;5096360;28;20058;-45
2022/03/09 10:05:16;;;;;;;1.80;1.70;;;;;;;;;;5096454;28;20028;-53
2022/03/09 10:08:02;;;;;;;2.35;1.70;;;;;;;;;;5096398;28;20035;-50
2022/03/09 10:10:28;;;;;;;2.72;1.83;;;;;;;;;;5096209;28;20095;-53
2022/03/09 10:13:09;;;;;;;2.15;1.60;;;;;;;;;;5096229;28;20059;-51
2022/03/09 10:15:35;;;;;;;2.47;1.63;;;;;;;;;;5096234;28;20024;-51
2022/03/09 10:18:20;;;;;;;2.45;1.83;;;;;;;;;;5096080;28;20024;-53
2022/03/09 10:20:47;;;;;;;2.60;1.73;;;;;;;;;;5096339;28;20053;-51
2022/03/09 10:23:13;;;;;;;2.55;1.70;;;;;;;;;;5096150;28;20424;-45
2022/03/09 10:25:40;;;;;;;2.47;1.40;;;;;;;;;;5095874;28;20031;-45
2022/03/09 10:28:07;;;;;;;3.05;1.88;;;;;;;;;;5096104;28;20028;-44
2022/03/09 10:30:34;;;;;;;2.75;1.90;;;;;;;;;;5096074;28;20074;-45
2022/03/09 10:33:01;;;;;;;2.35;1.80;;;;;;;;;;5095797;28;20024;-45
2022/03/09 10:35:32;;;;;;;2.03;1.58;;;;;;;;;;5095724;28;20028;-45
2022/03/09 10:37:59;;;;;;;3.42;1.83;;;;;;;;;;5095484;28;20131;-44
2022/03/09 10:40:26;;;;;;;2.63;1.88;;;;;;;;;;5095697;28;20032;-45
2022/03/09 10:42:52;;;;;;;3.00;1.80;;;;;;;;;;5095683;28;20024;-53
2022/03/09 10:45:19;;;;;;;1.88;1.38;;;;;;;;;;5095473;28;20032;-54
2022/03/09 10:47:46;;;;;;;1.70;1.38;;;;;;;;;;5095501;28;20062;-53
2022/03/09 10:50:13;;;;;;;2.10;1.42;;;;;;;;;;5095451;28;20108;-53
2022/03/09 10:53:05;;;;;;;2.88;1.50;;;;;;;;;;5095781;28;20051;-51
2022/03/09 10:55:38;;;;;;;1.63;1.52;;;;;;;;;;5091768;28;20124;-51
2022/03/09 10:58:13;;;;;;;2.70;2.00;;;;;;;;;;5095279;28;20024;-51
2022/03/09 11:00:45;;;;;;;1.75;1.58;;;;;;;;;;5095377;28;20038;-50
2022/03/09 11:03:12;;;;;;;2.15;1.58;;;;;;;;;;5094929;28;20027;-49
2022/03/09 11:06:00;;;;;;;1.77;1.60;;;;;;;;;;5094245;28;20046;-50
2022/03/09 11:08:27;;;;;;;1.88;1.65;;;;;;;;;;5095066;28;20144;-53
2022/03/09 11:10:55;;;;;;;1.75;1.65;;;;;;;;;;5094972;28;20055;-52
2022/03/09 11:13:21;;;;;;;1.75;1.50;;;;;;;;;;5094851;28;20553;-53
2022/03/09 11:15:47;;;;;;;1.85;1.65;;;;;;;;;;5094889;28;20028;-52
2022/03/09 11:18:19;;;;;;;2.28;1.88;;;;;;;;;;5094759;28;20076;-45
2022/03/09 11:20:49;;;;;;;3.20;2.13;;;;;;;;;;5094819;28;20028;-45
2022/03/09 11:23:15;;;;;;;2.22;1.98;;;;;;;;;;5094882;28;20028;-44
2022/03/09 11:26:02;;;;;;;2.03;1.70;;;;;;;;;;5094825;28;20024;-44
2022/03/09 11:28:30;;;;;;;2.97;2.05;;;;;;;;;;5094791;28;20105;-44
2022/03/09 11:30:58;;;;;;;2.63;1.95;;;;;;;;;;5094930;28;20028;-44
2022/03/09 11:33:45;;;;;;;3.47;2.15;;;;;;;;;;5094625;28;20032;-45
2022/03/09 11:36:33;;;;;;;2.55;1.88;;;;;;;;;;5094668;28;20062;-45
2022/03/09 11:39:07;;;;;;;2.28;1.80;;;;;;;;;;5094861;28;20040;-44
2022/03/09 11:41:37;;;;;;;2.88;2.35;;;;;;;;;;5093246;28;20436;-44
2022/03/09 11:44:20;;;;;;;3.35;2.17;;;;;;;;;;5094438;28;20050;-44
2022/03/09 11:47:01;;;;;;;4.78;2.58;;;;;;;;;;5094514;28;20383;-44
2022/03/09 11:49:58;;;;;;;3.55;2.47;;;;;;;;;;5094361;28;20031;-44
2022/03/09 11:52:25;;;;;;;3.45;2.38;;;;;;;;;;5077456;28;20389;-44
2022/03/09 11:55:00;;;;;;;3.30;2.13;;;;;;;;;;5094611;28;20440;-44
2022/03/09 11:57:46;;;;;;;2.97;2.42;;;;;;;;;;5094200;28;20036;-44
2022/03/09 12:00:14;;;;;;;4.25;2.97;;;;;;;;;;5094111;28;20116;-44
2022/03/09 12:02:40;;;;;;;4.32;2.38;;;;;;;;;;5094311;28;20437;-46
2022/03/09 12:05:06;;;;;;;4.82;2.40;;;;;;;;;;5094061;28;20020;-45
2022/03/09 12:07:35;;;;;;;2.97;2.35;;;;;;;;;;5094052;28;20090;-48
2022/03/09 12:10:16;;;;;;;4.13;2.47;;;;;;;;;;5094059;28;20081;-45
2022/03/09 12:13:03;;;;;;;3.80;2.70;;;;;;;;;;5093974;28;20499;-45
2022/03/09 12:15:29;;;;;;;5.47;2.58;;;;;;;;;;5093957;28;20024;-46
2022/03/09 12:17:55;;;;;;;3.58;2.47;;;;;;;;;;5092534;28;20040;-46
2022/03/09 12:20:27;;;;;;;5.55;2.97;;;;;;;;;;5093745;28;20035;-45
2022/03/09 12:23:01;;;;;;;5.47;2.80;;;;;;;;;;5094022;28;20081;-45
2022/03/09 12:25:38;;;;;;;4.38;3.15;;;;;;;;;;5093670;28;20027;-45
2022/03/09 12:28:25;;;;;;;6.35;3.50;;;;;;;;;;5093627;28;20024;-46
2022/03/09 12:30:57;;;;;;;4.50;2.53;;;;;;;;;;5093503;28;20056;-54
2022/03/09 12:33:29;;;;;;;7.90;3.92;;;;;;;;;;5093582;28;20024;-51
2022/03/09 12:36:06;;;;;;;7.00;3.90;;;;;;;;;;5093491;28;20034;-52
2022/03/09 12:38:42;;;;;;;6.25;4.40;;;;;;;;;;5093337;28;20505;-50
2022/03/09 12:41:29;;;;;;;8.88;5.20;;;;;;;;;;5093273;28;20034;-50
2022/03/09 12:43:59;;;;;;;8.43;4.18;;;;;;;;;;5093322;28;20028;-51
2022/03/09 12:46:25;;;;;;;7.05;4.63;;;;;;;;;;5093256;28;20156;-51
2022/03/09 12:48:59;;;;;;;6.78;4.38;;;;;;;;;;5093138;28;20038;-52
2022/03/09 12:51:25;;;;;;;6.40;4.22;;;;;;;;;;5093269;28;20034;-51
2022/03/09 12:53:51;;;;;;;8.63;4.80;;;;;;;;;;5093154;28;20028;-52
2022/03/09 12:56:18;;;;;;;8.18;5.13;;;;;;;;;;5093021;28;20035;-53
2022/03/09 12:58:44;;;;;;;8.73;5.03;;;;;;;;;;5093248;28;20123;-51
2022/03/09 13:01:12;;;;;;;8.32;5.35;;;;;;;;;;5092972;28;20442;-51
2022/03/09 13:03:39;;;;;;;9.70;5.15;;;;;;;;;;5092955;28;20020;-50
2022/03/09 13:06:26;;;;;;;9.23;5.45;;;;;;;;;;5092960;28;20032;-51
2022/03/09 13:08:52;;;;;;;8.18;4.65;;;;;;;;;;5092866;28;20027;-45
2022/03/09 13:11:34;;;;;;;10.85;5.32;;;;;;;;;;5092838;28;20398;-45
2022/03/09 13:14:00;;;;;;;9.50;6.60;;;;;;;;;;5093104;28;20410;-44
2022/03/09 13:16:27;;;;;;;9.77;5.60;;;;;;;;;;5092848;28;20103;-45
2022/03/09 13:19:00;;;;;;;10.88;6.97;;;;;;;;;;5092641;28;20072;-45
2022/03/09 13:21:27;;;;;;;8.30;6.25;;;;;;;;;;5092717;28;20103;-44
2022/03/09 13:23:58;;;;;;;10.65;6.32;;;;;;;;;;5092683;28;20032;-45
2022/03/09 13:26:25;;;;;;;10.98;5.93;;;;;;;;;;5092995;28;20024;-50
2022/03/09 13:28:58;;;;;;;10.75;6.05;;;;;;;;;;5092281;28;20111;-51
2022/03/09 13:31:44;;;;;;;9.50;6.40;;;;;;;;;;5092420;28;20016;-52
2022/03/09 13:34:20;;;;;;;10.25;6.25;;;;;;;;;;5092534;28;20024;-53
2022/03/09 13:36:47;;;;;;;8.52;5.40;;;;;;;;;;5092477;28;20430;-51
2022/03/09 13:39:14;;;;;;;9.82;6.07;;;;;;;;;;5092675;28;20058;-50
2022/03/09 13:41:43;;;;;;;9.73;6.03;;;;;;;;;;5092347;28;20477;-51
2022/03/09 13:44:28;;;;;;;9.20;6.45;;;;;;;;;;5092758;28;20383;-52
2022/03/09 13:47:03;;;;;;;10.20;6.47;;;;;;;;;;5092477;28;20028;-51
2022/03/09 13:49:41;;;;;;;11.50;6.80;;;;;;;;;;5092624;28;20028;-52
2022/03/09 13:52:24;;;;;;;12.07;6.85;;;;;;;;;;5092430;28;20024;-50
2022/03/09 13:54:51;;;;;;;8.68;6.50;;;;;;;;;;5092299;28;20148;-53
2022/03/09 13:57:37;;;;;;;8.55;5.60;;;;;;;;;;5092539;28;20434;-50
2022/03/09 14:00:27;;;;;;;10.93;6.78;;;;;;;;;;5092176;28;20048;-52
2022/03/09 14:02:59;;;;;;;9.60;5.93;;;;;;;;;;5092209;28;20020;-46
2022/03/09 14:05:31;;;;;;;9.48;5.80;;;;;;;;;;5092324;28;20032;-46
2022/03/09 14:07:57;;;;;;;7.88;5.32;;;;;;;;;;5092203;28;20035;-46
2022/03/09 14:10:25;;;;;;;8.68;5.82;;;;;;;;;;5092228;28;20030;-46
2022/03/09 14:12:51;;;;;;;10.63;4.82;;;;;;;;;;5092125;28;20024;-47
2022/03/09 14:15:17;;;;;;;7.45;4.90;;;;;;;;;;5092198;28;20107;-45
2022/03/09 14:17:43;;;;;;;8.48;4.28;;;;;;;;;;5092108;28;20086;-46
2022/03/09 14:20:11;;;;;;;10.45;4.50;;;;;;;;;;5092070;28;20040;-46
2022/03/09 14:22:41;;;;;;;9.30;4.53;;;;;;;;;;5092124;28;20031;-46
2022/03/09 14:25:09;;;;;;;6.53;4.88;;;;;;;;;;5092359;28;20031;-46
2022/03/09 14:27:35;;;;;;;5.70;4.28;;;;;;;;;;5092040;28;20028;-46
2022/03/09 14:30:04;;;;;;;7.20;4.25;;;;;;;;;;5092086;28;20035;-45
2022/03/09 14:32:30;;;;;;;6.03;4.25;;;;;;;;;;5092018;28;20047;-48
2022/03/09 14:34:56;;;;;;;6.78;4.38;;;;;;;;;;5092221;28;20486;-45
2022/03/09 14:37:22;;;;;;;6.32;4.20;;;;;;;;;;5091767;28;20517;-46
2022/03/09 14:39:48;;;;;;;5.95;4.00;;;;;;;;;;5092002;28;20458;-49
2022/03/09 14:42:14;;;;;;;18.13;4.53;;;;;;;;;;5095788;28;20031;-47
2022/03/09 14:44:40;;;;;;;7.07;4.03;;;;;;;;;;5095673;28;20028;-47
2022/03/09 14:47:08;;;;;;;6.82;4.35;;;;;;;;;;5095548;28;20489;-47
2022/03/09 14:49:35;;;;;;;5.35;3.72;;;;;;;;;;5095566;28;20039;-47
2022/03/09 14:52:01;;;;;;;5.45;3.78;;;;;;;;;;5095504;28;20024;-46